sensor_id;sensor_type;location;lat;lon;timestamp;pressure;altitude;pressure_sealevel;temperature;humidity
20942;BME280;10630;53.734;10.282;2022-07-24T00:02:18;101500.03;;;20.03;56.72
20942;BME280;10630;53.734;10.282;2022-07-24T00:05:07;101510.25;;;19.87;58.38
20942;BME280;10630;53.734;10.282;2022-07-24T00:07:36;101649.16;;;20.79;58.78
20942;BME280;10630;53.734;10.282;2022-07-24T00:10:12;101583.34;;;20.26;58.76
20942;BME280;10630;53.734;10.282;2022-07-24T00:12:59;101632.47;;;20.88;58.43
20942;BME280;10630;53.734;10.282;2022-07-24T00:15:32;101560.00;;;20.45;58.02
20942;BME280;10630;53.734;10.282;2022-07-24T00:18:28;101628.56;;;20.78;57.33
20942;BME280;10630;53.734;10.282;2022-07-24T00:21:03;101417.00;;;19.11;57.96
20942;BME280;10630;53.734;10.282;2022-07-24T00:23:41;101484.28;;;19.53;58.45
20942;BME280;10630;53.734;10.282;2022-07-24T00:26:18;101621.31;;;20.78;58.21
20942;BME280;10630;53.734;10.282;2022-07-24T00:28:57;101421.38;;;19.25;58.02
20942;BME280;10630;53.734;10.282;2022-07-24T00:31:31;101529.28;;;20.33;58.64
20942;BME280;10630;53.734;10.282;2022-07-24T00:34:07;101608.81;;;20.70;58.69
20942;BME280;10630;53.734;10.282;2022-07-24T00:36:35;101615.44;;;20.81;58.93
20942;BME280;10630;53.734;10.282;2022-07-24T00:39:20;101356.78;;;18.90;58.57
20942;BME280;10630;53.734;10.282;2022-07-24T00:41:54;101627.63;;;20.32;57.07
20942;BME280;10630;53.734;10.282;2022-07-24T00:44:24;101586.47;;;19.89;55.29
20942;BME280;10630;53.734;10.282;2022-07-24T00:46:57;101568.59;;;19.61;55.28
20942;BME280;10630;53.734;10.282;2022-07-24T00:49:31;101613.84;;;19.53;56.33
20942;BME280;10630;53.734;10.282;2022-07-24T00:52:02;101484.28;;;18.57;57.55
20942;BME280;10630;53.734;10.282;2022-07-24T00:54:42;101618.41;;;19.66;57.88
20942;BME280;10630;53.734;10.282;2022-07-24T00:57:12;101516.59;;;18.99;56.92
20942;BME280;10630;53.734;10.282;2022-07-24T00:59:45;101483.28;;;18.78;57.04
20942;BME280;10630;53.734;10.282;2022-07-24T01:02:16;101309.66;;;17.35;58.03
20942;BME280;10630;53.734;10.282;2022-07-24T01:04:47;101615.94;;;19.57;58.43
20942;BME280;10630;53.734;10.282;2022-07-24T01:07:27;101603.59;;;19.21;58.94
20942;BME280;10630;53.734;10.282;2022-07-24T01:10:19;101252.44;;;16.91;58.71
20942;BME280;10630;53.734;10.282;2022-07-24T01:12:49;101624.25;;;19.63;58.89
20942;BME280;10630;53.734;10.282;2022-07-24T01:15:29;101584.88;;;19.13;58.66
20942;BME280;10630;53.734;10.282;2022-07-24T01:18:02;101644.56;;;19.58;58.82
20942;BME280;10630;53.734;10.282;2022-07-24T01:20:48;101529.03;;;18.93;59.39
20942;BME280;10630;53.734;10.282;2022-07-24T01:23:22;101628.00;;;19.82;59.51
20942;BME280;10630;53.734;10.282;2022-07-24T01:26:05;101547.19;;;19.53;58.82
20942;BME280;10630;53.734;10.282;2022-07-24T01:28:35;101623.88;;;19.92;59.69
20942;BME280;10630;53.734;10.282;2022-07-24T01:31:14;101639.03;;;19.87;59.09
20942;BME280;10630;53.734;10.282;2022-07-24T01:33:45;101652.13;;;19.76;59.31
20942;BME280;10630;53.734;10.282;2022-07-24T01:36:16;101628.00;;;19.75;60.33
20942;BME280;10630;53.734;10.282;2022-07-24T01:38:46;101617.66;;;19.85;60.11
20942;BME280;10630;53.734;10.282;2022-07-24T01:41:18;101656.72;;;20.16;59.17
20942;BME280;10630;53.734;10.282;2022-07-24T01:43:48;101600.16;;;19.81;59.42
20942;BME280;10630;53.734;10.282;2022-07-24T01:46:17;101635.09;;;19.89;59.66
20942;BME280;10630;53.734;10.282;2022-07-24T01:48:47;101620.94;;;19.81;59.80
20942;BME280;10630;53.734;10.282;2022-07-24T01:51:23;101626.75;;;19.77;58.99
20942;BME280;10630;53.734;10.282;2022-07-24T01:54:01;101447.59;;;18.70;58.41
20942;BME280;10630;53.734;10.282;2022-07-24T01:56:38;101612.78;;;19.47;58.39
20942;BME280;10630;53.734;10.282;2022-07-24T01:59:13;101631.06;;;19.58;57.66
20942;BME280;10630;53.734;10.282;2022-07-24T02:01:42;101492.91;;;19.01;56.51
20942;BME280;10630;53.734;10.282;2022-07-24T02:04:19;101607.56;;;19.25;56.10
20942;BME280;10630;53.734;10.282;2022-07-24T02:06:49;101606.97;;;18.88;56.50
20942;BME280;10630;53.734;10.282;2022-07-24T02:09:21;101610.63;;;18.74;57.02
20942;BME280;10630;53.734;10.282;2022-07-24T02:11:51;101619.81;;;18.86;57.59
20942;BME280;10630;53.734;10.282;2022-07-24T02:14:21;101569.66;;;18.50;58.54
20942;BME280;10630;53.734;10.282;2022-07-24T02:17:05;101608.13;;;18.72;59.42
20942;BME280;10630;53.734;10.282;2022-07-24T02:19:32;101602.88;;;18.92;59.29
20942;BME280;10630;53.734;10.282;2022-07-24T02:22:03;101621.22;;;19.17;59.07
20942;BME280;10630;53.734;10.282;2022-07-24T02:24:41;101500.59;;;18.42;59.24
20942;BME280;10630;53.734;10.282;2022-07-24T02:27:38;101623.88;;;19.04;57.81
20942;BME280;10630;53.734;10.282;2022-07-24T02:30:28;101628.94;;;18.85;56.98
20942;BME280;10630;53.734;10.282;2022-07-24T02:33:01;101627.28;;;18.84;57.04
20942;BME280;10630;53.734;10.282;2022-07-24T02:35:34;101626.63;;;18.82;57.43
20942;BME280;10630;53.734;10.282;2022-07-24T02:38:07;101624.72;;;18.69;57.63
20942;BME280;10630;53.734;10.282;2022-07-24T02:40:35;101619.44;;;18.26;58.22
20942;BME280;10630;53.734;10.282;2022-07-24T02:43:11;101291.38;;;16.09;59.01
20942;BME280;10630;53.734;10.282;2022-07-24T02:45:45;101617.47;;;18.34;59.22
20942;BME280;10630;53.734;10.282;2022-07-24T02:48:43;101616.53;;;18.56;58.61
20942;BME280;10630;53.734;10.282;2022-07-24T02:51:12;101619.22;;;18.49;58.69
20942;BME280;10630;53.734;10.282;2022-07-24T02:53:42;101568.91;;;17.99;58.66
20942;BME280;10630;53.734;10.282;2022-07-24T02:56:10;101617.84;;;18.31;58.98
20942;BME280;10630;53.734;10.282;2022-07-24T02:58:48;101619.50;;;18.32;59.46
20942;BME280;10630;53.734;10.282;2022-07-24T03:01:17;101618.34;;;18.42;59.59
20942;BME280;10630;53.734;10.282;2022-07-24T03:03:50;101605.97;;;18.54;59.78
20942;BME280;10630;53.734;10.282;2022-07-24T03:06:42;101626.88;;;18.87;59.66
20942;BME280;10630;53.734;10.282;2022-07-24T03:09:21;101358.00;;;17.00;59.68
20942;BME280;10630;53.734;10.282;2022-07-24T03:12:00;101596.06;;;18.61;60.73
20942;BME280;10630;53.734;10.282;2022-07-24T03:14:30;101464.53;;;18.01;59.95
20942;BME280;10630;53.734;10.282;2022-07-24T03:17:20;101620.84;;;18.85;60.28
20942;BME280;10630;53.734;10.282;2022-07-24T03:20:04;101614.97;;;19.10;59.79
20942;BME280;10630;53.734;10.282;2022-07-24T03:22:32;101310.09;;;17.11;59.63
20942;BME280;10630;53.734;10.282;2022-07-24T03:25:02;101616.03;;;19.22;60.04
20942;BME280;10630;53.734;10.282;2022-07-24T03:27:30;101612.28;;;19.10;59.86
20942;BME280;10630;53.734;10.282;2022-07-24T03:29:57;101612.94;;;19.19;59.58
20942;BME280;10630;53.734;10.282;2022-07-24T03:32:26;101615.81;;;19.10;60.31
20942;BME280;10630;53.734;10.282;2022-07-24T03:34:54;101612.50;;;19.15;59.80
20942;BME280;10630;53.734;10.282;2022-07-24T03:37:22;101616.03;;;19.22;59.86
20942;BME280;10630;53.734;10.282;2022-07-24T03:39:54;101613.53;;;19.14;60.44
20942;BME280;10630;53.734;10.282;2022-07-24T03:42:22;101606.88;;;19.17;60.21
20942;BME280;10630;53.734;10.282;2022-07-24T03:44:50;101612.75;;;19.27;59.80
20942;BME280;10630;53.734;10.282;2022-07-24T03:47:20;101619.53;;;19.09;60.49
20942;BME280;10630;53.734;10.282;2022-07-24T03:49:48;101621.97;;;18.97;60.00
20942;BME280;10630;53.734;10.282;2022-07-24T03:52:21;101610.63;;;18.74;58.58
20942;BME280;10630;53.734;10.282;2022-07-24T03:54:58;101491.69;;;18.07;59.29
20942;BME280;10630;53.734;10.282;2022-07-24T03:57:26;101616.19;;;19.01;58.50
20942;BME280;10630;53.734;10.282;2022-07-24T03:59:57;101620.38;;;19.10;59.09
20942;BME280;10630;53.734;10.282;2022-07-24T04:02:27;101617.03;;;19.08;60.18
20942;BME280;10630;53.734;10.282;2022-07-24T04:04:57;101609.81;;;19.15;60.42
20942;BME280;10630;53.734;10.282;2022-07-24T04:07:27;101618.75;;;19.22;60.42
20942;BME280;10630;53.734;10.282;2022-07-24T04:09:57;101590.06;;;19.08;60.45
20942;BME280;10630;53.734;10.282;2022-07-24T04:12:26;101458.09;;;18.44;60.01
20942;BME280;10630;53.734;10.282;2022-07-24T04:14:55;101635.81;;;19.36;60.53
20942;BME280;10630;53.734;10.282;2022-07-24T04:17:25;101611.94;;;19.40;60.85
20942;BME280;10630;53.734;10.282;2022-07-24T04:19:59;101470.38;;;18.60;60.90
20942;BME280;10630;53.734;10.282;2022-07-24T04:22:29;101605.56;;;19.68;59.89
20942;BME280;10630;53.734;10.282;2022-07-24T04:25:21;101600.78;;;19.56;60.51
20942;BME280;10630;53.734;10.282;2022-07-24T04:28:16;101429.09;;;18.53;60.38
20942;BME280;10630;53.734;10.282;2022-07-24T04:30:46;101580.19;;;19.35;60.86
20942;BME280;10630;53.734;10.282;2022-07-24T04:33:14;101600.34;;;19.59;60.58
20942;BME280;10630;53.734;10.282;2022-07-24T04:35:46;101611.38;;;19.65;60.98
20942;BME280;10630;53.734;10.282;2022-07-24T04:38:31;101568.97;;;19.45;61.44
20942;BME280;10630;53.734;10.282;2022-07-24T04:41:01;101555.28;;;19.67;60.78
20942;BME280;10630;53.734;10.282;2022-07-24T04:43:32;101619.72;;;19.97;60.92
20942;BME280;10630;53.734;10.282;2022-07-24T04:46:18;101596.44;;;20.02;60.89
20942;BME280;10630;53.734;10.282;2022-07-24T04:48:49;101602.28;;;20.06;61.27
20942;BME280;10630;53.734;10.282;2022-07-24T04:51:19;101510.44;;;19.59;61.45
20942;BME280;10630;53.734;10.282;2022-07-24T04:53:51;101596.66;;;20.14;61.48
20942;BME280;10630;53.734;10.282;2022-07-24T04:56:21;101372.59;;;18.93;61.83
20942;BME280;10630;53.734;10.282;2022-07-24T04:58:52;101605.56;;;20.42;61.69
20942;BME280;10630;53.734;10.282;2022-07-24T05:01:20;101566.03;;;20.47;61.34
20942;BME280;10630;53.734;10.282;2022-07-24T05:03:50;101483.03;;;19.96;61.69
20942;BME280;10630;53.734;10.282;2022-07-24T05:06:24;101468.25;;;19.91;61.58
20942;BME280;10630;53.734;10.282;2022-07-24T05:08:57;101589.19;;;20.95;61.17
20942;BME280;10630;53.734;10.282;2022-07-24T05:11:26;101593.94;;;21.07;61.46
20942;BME280;10630;53.734;10.282;2022-07-24T05:13:56;101586.25;;;20.97;61.86
20942;BME280;10630;53.734;10.282;2022-07-24T05:16:26;101592.03;;;21.07;62.19
20942;BME280;10630;53.734;10.282;2022-07-24T05:18:54;101600.28;;;21.26;61.70
20942;BME280;10630;53.734;10.282;2022-07-24T05:21:22;101598.63;;;21.25;62.94
20942;BME280;10630;53.734;10.282;2022-07-24T05:23:56;101626.00;;;21.42;62.73
20942;BME280;10630;53.734;10.282;2022-07-24T05:26:26;101607.59;;;21.57;62.34
20942;BME280;10630;53.734;10.282;2022-07-24T05:28:55;101557.78;;;21.26;62.58
20942;BME280;10630;53.734;10.282;2022-07-24T05:31:42;101607.31;;;21.97;61.55
20942;BME280;10630;53.734;10.282;2022-07-24T05:34:25;101395.59;;;20.29;62.18
20942;BME280;10630;53.734;10.282;2022-07-24T05:36:55;101605.81;;;21.76;61.90
20942;BME280;10630;53.734;10.282;2022-07-24T05:39:26;101599.44;;;21.89;62.16
20942;BME280;10630;53.734;10.282;2022-07-24T05:42:14;101539.81;;;22.14;60.46
20942;BME280;10630;53.734;10.282;2022-07-24T05:44:46;101427.81;;;21.33;60.58
20942;BME280;10630;53.734;10.282;2022-07-24T05:47:20;101595.88;;;22.76;58.96
20942;BME280;10630;53.734;10.282;2022-07-24T05:49:48;101455.75;;;21.96;58.56
20942;BME280;10630;53.734;10.282;2022-07-24T05:52:18;101591.94;;;23.10;58.09
20942;BME280;10630;53.734;10.282;2022-07-24T05:54:45;101373.66;;;21.77;57.61
20942;BME280;10630;53.734;10.282;2022-07-24T05:57:15;101587.06;;;23.30;56.97
20942;BME280;10630;53.734;10.282;2022-07-24T05:59:45;101594.44;;;22.37;58.59
20942;BME280;10630;53.734;10.282;2022-07-24T06:02:14;101590.91;;;22.73;58.23
20942;BME280;10630;53.734;10.282;2022-07-24T06:05:02;101584.50;;;23.17;56.97
20942;BME280;10630;53.734;10.282;2022-07-24T06:07:33;101583.00;;;23.21;55.97
20942;BME280;10630;53.734;10.282;2022-07-24T06:10:09;101484.97;;;22.12;58.60
20942;BME280;10630;53.734;10.282;2022-07-24T06:12:42;101263.44;;;21.59;56.54
20942;BME280;10630;53.734;10.282;2022-07-24T06:15:20;101584.72;;;22.85;56.96
20942;BME280;10630;53.734;10.282;2022-07-24T06:17:51;101514.56;;;23.31;55.16
20942;BME280;10630;53.734;10.282;2022-07-24T06:20:21;101558.63;;;23.02;55.38
20942;BME280;10630;53.734;10.282;2022-07-24T06:22:52;101389.53;;;22.10;56.55
20942;BME280;10630;53.734;10.282;2022-07-24T06:25:20;101575.06;;;23.50;56.10
20942;BME280;10630;53.734;10.282;2022-07-24T06:27:49;101594.84;;;23.81;55.03
20942;BME280;10630;53.734;10.282;2022-07-24T06:30:29;101584.50;;;24.01;55.10
20942;BME280;10630;53.734;10.282;2022-07-24T06:32:59;101582.00;;;24.00;53.94
20942;BME280;10630;53.734;10.282;2022-07-24T06:35:27;101466.53;;;23.31;53.71
20942;BME280;10630;53.734;10.282;2022-07-24T06:38:02;101548.53;;;23.87;54.46
20942;BME280;10630;53.734;10.282;2022-07-24T06:40:29;101574.34;;;24.85;52.87
20942;BME280;10630;53.734;10.282;2022-07-24T06:43:00;101581.22;;;24.76;52.58
20942;BME280;10630;53.734;10.282;2022-07-24T06:45:30;101573.75;;;25.12;51.72
20942;BME280;10630;53.734;10.282;2022-07-24T06:48:00;101576.75;;;25.27;51.60
20942;BME280;10630;53.734;10.282;2022-07-24T06:50:28;101595.63;;;25.46;51.12
20942;BME280;10630;53.734;10.282;2022-07-24T06:52:59;101264.81;;;24.00;50.40
20942;BME280;10630;53.734;10.282;2022-07-24T06:55:38;101449.69;;;24.58;50.80
20942;BME280;10630;53.734;10.282;2022-07-24T06:58:05;101535.28;;;25.08;51.02
20942;BME280;10630;53.734;10.282;2022-07-24T07:00:32;101563.56;;;25.87;50.81
20942;BME280;10630;53.734;10.282;2022-07-24T07:03:01;101290.56;;;24.61;49.58
20942;BME280;10630;53.734;10.282;2022-07-24T07:05:28;101390.06;;;24.40;49.78
20942;BME280;10630;53.734;10.282;2022-07-24T07:07:55;101554.56;;;25.36;50.30
20942;BME280;10630;53.734;10.282;2022-07-24T07:10:25;101020.19;;;21.56;51.18
20942;BME280;10630;53.734;10.282;2022-07-24T07:12:52;101545.16;;;26.12;49.31
20942;BME280;10630;53.734;10.282;2022-07-24T07:15:26;101548.50;;;26.02;49.66
20942;BME280;10630;53.734;10.282;2022-07-24T07:17:59;101552.81;;;26.76;48.94
20942;BME280;10630;53.734;10.282;2022-07-24T07:20:27;101562.91;;;26.14;48.88
20942;BME280;10630;53.734;10.282;2022-07-24T07:22:57;101472.56;;;26.33;48.02
20942;BME280;10630;53.734;10.282;2022-07-24T07:25:26;101505.16;;;26.67;47.63
20942;BME280;10630;53.734;10.282;2022-07-24T07:27:56;101499.16;;;27.20;47.15
20942;BME280;10630;53.734;10.282;2022-07-24T07:30:25;101436.63;;;27.23;46.49
20942;BME280;10630;53.734;10.282;2022-07-24T07:32:53;101471.78;;;27.14;46.07
20942;BME280;10630;53.734;10.282;2022-07-24T07:35:20;101553.22;;;27.83;46.11
20942;BME280;10630;53.734;10.282;2022-07-24T07:37:53;101454.00;;;27.44;45.54
20942;BME280;10630;53.734;10.282;2022-07-24T07:40:22;101551.19;;;27.68;45.79
20942;BME280;10630;53.734;10.282;2022-07-24T07:43:03;101555.78;;;27.02;46.48
20942;BME280;10630;53.734;10.282;2022-07-24T07:45:36;101211.41;;;25.41;46.32
20942;BME280;10630;53.734;10.282;2022-07-24T07:48:03;101533.09;;;28.04;45.65
20942;BME280;10630;53.734;10.282;2022-07-24T07:50:32;101554.88;;;28.32;45.13
20942;BME280;10630;53.734;10.282;2022-07-24T07:52:59;101454.97;;;27.33;45.77
20942;BME280;10630;53.734;10.282;2022-07-24T07:55:34;101467.56;;;28.25;44.55
20942;BME280;10630;53.734;10.282;2022-07-24T07:58:08;101596.16;;;28.25;44.89
20942;BME280;10630;53.734;10.282;2022-07-24T08:00:37;101325.50;;;26.59;45.72
20942;BME280;10630;53.734;10.282;2022-07-24T08:03:09;101554.56;;;28.97;44.52
20942;BME280;10630;53.734;10.282;2022-07-24T08:05:36;101459.78;;;28.70;44.45
20942;BME280;10630;53.734;10.282;2022-07-24T08:08:05;101260.72;;;26.81;44.53
20942;BME280;10630;53.734;10.282;2022-07-24T08:10:36;101434.03;;;27.92;44.14
20942;BME280;10630;53.734;10.282;2022-07-24T08:13:06;101537.88;;;29.09;43.92
20942;BME280;10630;53.734;10.282;2022-07-24T08:15:42;101449.38;;;28.72;43.80
20942;BME280;10630;53.734;10.282;2022-07-24T08:18:13;101536.00;;;29.40;43.41
20942;BME280;10630;53.734;10.282;2022-07-24T08:20:55;101532.94;;;29.83;43.17
20942;BME280;10630;53.734;10.282;2022-07-24T08:23:23;101530.47;;;29.87;42.71
20942;BME280;10630;53.734;10.282;2022-07-24T08:26:00;101533.47;;;29.90;42.30
20942;BME280;10630;53.734;10.282;2022-07-24T08:28:31;101534.03;;;29.97;42.37
20942;BME280;10630;53.734;10.282;2022-07-24T08:30:58;101553.00;;;29.47;43.52
20942;BME280;10630;53.734;10.282;2022-07-24T08:33:32;101532.03;;;30.13;42.07
20942;BME280;10630;53.734;10.282;2022-07-24T08:36:06;101526.41;;;30.44;42.75
20942;BME280;10630;53.734;10.282;2022-07-24T08:38:47;101179.19;;;28.26;41.97
20942;BME280;10630;53.734;10.282;2022-07-24T08:41:18;101402.34;;;29.87;41.70
20942;BME280;10630;53.734;10.282;2022-07-24T08:43:55;101527.28;;;30.35;41.64
20942;BME280;10630;53.734;10.282;2022-07-24T08:46:39;101155.16;;;28.07;41.90
20942;BME280;10630;53.734;10.282;2022-07-24T08:49:16;101457.72;;;30.60;40.79
20942;BME280;10630;53.734;10.282;2022-07-24T08:52:12;101272.72;;;29.00;42.00
20942;BME280;10630;53.734;10.282;2022-07-24T08:57:29;101264.19;;;29.73;40.34
20942;BME280;10630;53.734;10.282;2022-07-24T08:59:59;101497.53;;;31.37;39.66
20942;BME280;10630;53.734;10.282;2022-07-24T09:02:38;101446.25;;;30.87;39.75
20942;BME280;10630;53.734;10.282;2022-07-24T09:05:10;101500.03;;;31.63;39.21
20942;BME280;10630;53.734;10.282;2022-07-24T09:07:42;101379.13;;;30.69;39.89
20942;BME280;10630;53.734;10.282;2022-07-24T09:10:13;101431.19;;;30.85;39.03
20942;BME280;10630;53.734;10.282;2022-07-24T09:12:45;101516.91;;;32.04;39.05
20942;BME280;10630;53.734;10.282;2022-07-24T09:15:19;101507.19;;;32.36;38.63
20942;BME280;10630;53.734;10.282;2022-07-24T09:18:06;101507.28;;;32.50;38.09
20942;BME280;10630;53.734;10.282;2022-07-24T09:20:38;101387.88;;;32.03;37.70
20942;BME280;10630;53.734;10.282;2022-07-24T09:23:05;101513.09;;;32.68;37.66
20942;BME280;10630;53.734;10.282;2022-07-24T09:25:50;101279.59;;;31.07;37.50
20942;BME280;10630;53.734;10.282;2022-07-24T09:28:21;101504.28;;;32.28;38.46
20942;BME280;10630;53.734;10.282;2022-07-24T09:30:48;101506.94;;;31.89;38.42
20942;BME280;10630;53.734;10.282;2022-07-24T09:33:19;101472.22;;;32.37;37.68
20942;BME280;10630;53.734;10.282;2022-07-24T09:36:10;101514.31;;;33.33;37.03
20942;BME280;10630;53.734;10.282;2022-07-24T09:38:51;101499.41;;;33.34;36.94
20942;BME280;10630;53.734;10.282;2022-07-24T09:41:56;101409.22;;;33.49;36.03
20942;BME280;10630;53.734;10.282;2022-07-24T09:44:25;101499.22;;;33.58;35.91
20942;BME280;10630;53.734;10.282;2022-07-24T09:47:11;101487.28;;;33.63;36.08
20942;BME280;10630;53.734;10.282;2022-07-24T09:49:48;101079.69;;;31.37;36.28
20942;BME280;10630;53.734;10.282;2022-07-24T09:52:20;101270.72;;;32.16;36.06
20942;BME280;10630;53.734;10.282;2022-07-24T09:55:23;101479.13;;;34.00;35.69
20942;BME280;10630;53.734;10.282;2022-07-24T09:57:54;101490.75;;;33.69;36.45
20942;BME280;10630;53.734;10.282;2022-07-24T10:00:31;101499.47;;;33.29;36.97
20942;BME280;10630;53.734;10.282;2022-07-24T10:03:00;101250.84;;;31.67;36.82
20942;BME280;10630;53.734;10.282;2022-07-24T10:05:38;101486.88;;;33.70;36.19
20942;BME280;10630;53.734;10.282;2022-07-24T10:08:14;101426.16;;;33.42;36.36
20942;BME280;10630;53.734;10.282;2022-07-24T10:10:45;101462.16;;;33.51;36.56
20942;BME280;10630;53.734;10.282;2022-07-24T10:13:24;101444.38;;;33.71;36.75
20942;BME280;10630;53.734;10.282;2022-07-24T10:16:21;101487.78;;;32.66;37.19
20942;BME280;10630;53.734;10.282;2022-07-24T10:19:03;101481.88;;;32.73;37.69
20942;BME280;10630;53.734;10.282;2022-07-24T10:21:40;101486.03;;;33.41;37.05
20942;BME280;10630;53.734;10.282;2022-07-24T10:27:35;101285.03;;;31.12;37.85
20942;BME280;10630;53.734;10.282;2022-07-24T10:30:07;101227.75;;;31.44;37.54
20942;BME280;10630;53.734;10.282;2022-07-24T10:32:40;101435.97;;;32.68;37.37
20942;BME280;10630;53.734;10.282;2022-07-24T10:35:17;101356.75;;;32.60;36.91
20942;BME280;10630;53.734;10.282;2022-07-24T10:40:49;101464.69;;;33.14;37.33
20942;BME280;10630;53.734;10.282;2022-07-24T10:43:36;101283.25;;;32.41;37.18
20942;BME280;10630;53.734;10.282;2022-07-24T10:46:10;101474.00;;;33.79;36.77
20942;BME280;10630;53.734;10.282;2022-07-24T10:48:37;101454.38;;;33.53;36.13
20942;BME280;10630;53.734;10.282;2022-07-24T10:51:16;100953.97;;;30.09;36.65
20942;BME280;10630;53.734;10.282;2022-07-24T10:54:17;101162.19;;;31.51;36.56
20942;BME280;10630;53.734;10.282;2022-07-24T10:57:33;101450.75;;;34.22;36.06
20942;BME280;10630;53.734;10.282;2022-07-24T11:12:42;101365.78;;;34.19;34.79
20942;BME280;10630;53.734;10.282;2022-07-24T11:15:28;101193.59;;;34.15;34.18
20942;BME280;10630;53.734;10.282;2022-07-24T11:18:17;101428.91;;;35.48;34.72
20942;BME280;10630;53.734;10.282;2022-07-24T11:24:20;101416.94;;;35.39;34.57
20942;BME280;10630;53.734;10.282;2022-07-24T11:26:56;101419.63;;;35.44;34.35
20942;BME280;10630;53.734;10.282;2022-07-24T11:31:59;101352.56;;;35.47;33.39
20942;BME280;10630;53.734;10.282;2022-07-24T11:34:28;101409.34;;;35.93;33.27
20942;BME280;10630;53.734;10.282;2022-07-24T11:36:57;101405.13;;;36.05;33.53
20942;BME280;10630;53.734;10.282;2022-07-24T11:39:33;101330.78;;;35.54;33.80
20942;BME280;10630;53.734;10.282;2022-07-24T11:44:33;101380.69;;;36.07;33.32
20942;BME280;10630;53.734;10.282;2022-07-24T11:47:21;101285.56;;;36.20;33.03
20942;BME280;10630;53.734;10.282;2022-07-24T11:50:07;101125.59;;;34.59;33.03
20942;BME280;10630;53.734;10.282;2022-07-24T11:52:40;100953.94;;;33.36;33.15
20942;BME280;10630;53.734;10.282;2022-07-24T11:55:14;101255.31;;;35.05;33.10
20942;BME280;10630;53.734;10.282;2022-07-24T11:57:49;101349.09;;;36.43;32.34
20942;BME280;10630;53.734;10.282;2022-07-24T12:00:43;101363.47;;;35.43;33.77
20942;BME280;10630;53.734;10.282;2022-07-24T12:03:26;101301.97;;;35.64;33.17
20942;BME280;10630;53.734;10.282;2022-07-24T12:05:58;101320.06;;;35.79;33.22
20942;BME280;10630;53.734;10.282;2022-07-24T12:08:49;101207.00;;;34.30;33.94
20942;BME280;10630;53.734;10.282;2022-07-24T12:15:25;101334.88;;;36.27;33.30
20942;BME280;10630;53.734;10.282;2022-07-24T12:18:23;100939.44;;;33.62;32.85
20942;BME280;10630;53.734;10.282;2022-07-24T12:21:01;101109.59;;;35.67;32.29
20942;BME280;10630;53.734;10.282;2022-07-24T12:23:35;101064.84;;;34.85;32.95
20942;BME280;10630;53.734;10.282;2022-07-24T12:26:12;101113.50;;;35.22;32.46
20942;BME280;10630;53.734;10.282;2022-07-24T12:28:42;100789.38;;;33.23;32.21
20942;BME280;10630;53.734;10.282;2022-07-24T12:31:13;101052.38;;;34.30;33.11
20942;BME280;10630;53.734;10.282;2022-07-24T12:33:57;101280.69;;;36.00;33.05
20942;BME280;10630;53.734;10.282;2022-07-24T12:36:27;101310.94;;;35.87;33.09
20942;BME280;10630;53.734;10.282;2022-07-24T12:39:01;101300.81;;;36.44;32.87
20942;BME280;10630;53.734;10.282;2022-07-24T12:41:46;101288.00;;;36.39;32.67
20942;BME280;10630;53.734;10.282;2022-07-24T12:44:41;101064.44;;;34.03;33.19
20942;BME280;10630;53.734;10.282;2022-07-24T12:47:11;101295.81;;;36.02;33.43
20942;BME280;10630;53.734;10.282;2022-07-24T12:53:31;101293.97;;;35.45;34.03
20942;BME280;10630;53.734;10.282;2022-07-24T12:56:16;100761.59;;;31.23;34.56
20942;BME280;10630;53.734;10.282;2022-07-24T12:58:59;101225.81;;;35.67;33.58
20942;BME280;10630;53.734;10.282;2022-07-24T13:01:53;101304.75;;;35.73;33.78
20942;BME280;10630;53.734;10.282;2022-07-24T13:04:49;101038.91;;;33.88;33.56
20942;BME280;10630;53.734;10.282;2022-07-24T13:07:36;101009.81;;;34.31;33.31
20942;BME280;10630;53.734;10.282;2022-07-24T13:10:07;101277.19;;;36.55;33.45
20942;BME280;10630;53.734;10.282;2022-07-24T13:13:00;101276.78;;;36.74;32.01
20942;BME280;10630;53.734;10.282;2022-07-24T13:15:47;101160.03;;;35.11;32.42
20942;BME280;10630;53.734;10.282;2022-07-24T13:18:20;101165.38;;;35.16;33.13
20942;BME280;10630;53.734;10.282;2022-07-24T13:20:54;100852.44;;;33.47;32.56
20942;BME280;10630;53.734;10.282;2022-07-24T13:23:27;100997.75;;;34.09;33.47
20942;BME280;10630;53.734;10.282;2022-07-24T13:25:57;101263.06;;;35.60;33.27
20942;BME280;10630;53.734;10.282;2022-07-24T13:28:43;101230.53;;;35.75;33.43
20942;BME280;10630;53.734;10.282;2022-07-24T13:31:20;101230.63;;;36.40;32.91
20942;BME280;10630;53.734;10.282;2022-07-24T13:33:52;101251.13;;;36.48;32.94
20942;BME280;10630;53.734;10.282;2022-07-24T13:36:26;101250.06;;;36.70;32.47
20942;BME280;10630;53.734;10.282;2022-07-24T13:38:55;101022.06;;;35.27;32.55
20942;BME280;10630;53.734;10.282;2022-07-24T13:41:25;101156.78;;;36.35;32.49
20942;BME280;10630;53.734;10.282;2022-07-24T13:44:17;101243.06;;;36.64;31.94
20942;BME280;10630;53.734;10.282;2022-07-24T13:46:44;101008.63;;;34.90;32.76
20942;BME280;10630;53.734;10.282;2022-07-24T13:49:14;101229.22;;;36.64;32.03
20942;BME280;10630;53.734;10.282;2022-07-24T13:51:44;101025.66;;;34.83;32.28
20942;BME280;10630;53.734;10.282;2022-07-24T13:54:37;101205.94;;;35.73;33.11
20942;BME280;10630;53.734;10.282;2022-07-24T13:57:05;100746.31;;;32.87;32.90
20942;BME280;10630;53.734;10.282;2022-07-24T13:59:33;100729.75;;;32.78;32.70